Startpagina
METAR-TAF:

METAR-TAF

Vliegvelden :

Afton, Wyoming, Verenigde Staten

breedte: 42-42-32N, lengte: 110-56-32W, hoogte: 1896 m

Actueel weer

Dit bericht is 37 minuten geleden gemaakt, om 23:35 UTC
Weinig wind
Temperatuur 1°C
Vochtigheid 75%
Druk 1014 hPa
Zicht: 16.1 km
Geheel bewolkt op 11000 ft

METAR: KAFO 212335Z AUTO 00000KT 10SM OVC110 01/M03 A2995 RMK AO2

Tijdstip: 18:12 (00:12 UTC)


TAF: ontbreekt

Waarnemingen en weersverwachtingen van meer dan 4000 vliegvelden (METAR en TAF).

De beschikbare stations zijn de gele en rode punten op de kaart.

Ga met uw muis naar het station om de naam te zien.

Klik dan om waarnemingen en weersverwachtingen te zien.

kaart wijzigen: klik op de groene knoppen met een zwart kruis om in te zoomen, op de groene knop met een streepje om uit te zoomen of op de groene pijlen voor aangrenzende kaarten.


METAR-TAF: